Time;durP1;ratioP1;P1;durP2;ratioP2;P2;SDS_P1;SDS_P2;PMS_P1;PMS_P2;Temp;Humidity;BMP_temperature;BMP_pressure;BME280_temperature;BME280_humidity;BME280_pressure;Samples;Min_cycle;Max_cycle;Signal;HPM_P1;HPM_P2
2022/09/25 00:01:39;;;;;;;53.00;32.60;;;9.00;99.90;;;;;;5016263;28;20034;-53
2022/09/25 00:04:05;;;;;;;56.20;33.53;;;9.00;99.90;;;;;;5016207;28;20544;-54
2022/09/25 00:06:32;;;;;;;58.60;33.58;;;9.00;99.90;;;;;;5019520;28;20530;-54
2022/09/25 00:08:58;;;;;;;;;;;9.10;99.90;;;;;;5022064;28;20068;-53
2022/09/25 00:11:31;;;;;;;57.33;32.63;;;9.10;99.90;;;;;;5021656;28;19912;-54
2022/09/25 00:13:58;;;;;;;48.40;31.77;;;9.10;99.90;;;;;;5021424;28;20078;-54
2022/09/25 00:16:27;;;;;;;52.47;33.50;;;9.20;99.90;;;;;;5020287;28;20018;-54
2022/09/25 00:21:38;;;;;;;58.08;34.05;;;9.20;99.90;;;;;;5012545;28;20577;-54
2022/09/25 00:24:07;;;;;;;47.92;31.05;;;9.10;99.90;;;;;;5023131;28;20132;-53
2022/09/25 00:26:35;;;;;;;52.67;32.22;;;9.20;99.90;;;;;;5023427;28;20472;-53
2022/09/25 00:29:01;;;;;;;48.47;32.55;;;9.20;99.90;;;;;;5021824;28;20107;-54
2022/09/25 00:31:28;;;;;;;60.13;34.53;;;9.20;99.90;;;;;;5020799;28;20022;-53
2022/09/25 00:33:57;;;;;;;55.10;33.00;;;9.20;99.90;;;;;;5019666;28;20113;-53
2022/09/25 00:36:23;;;;;;;53.22;32.65;;;9.20;99.90;;;;;;5021117;28;20056;-52
2022/09/25 00:38:49;;;;;;;55.30;34.92;;;9.20;99.90;;;;;;5021596;28;20485;-53
2022/09/25 00:41:17;;;;;;;56.55;32.20;;;9.20;99.90;;;;;;5019457;28;20124;-53
2022/09/25 00:43:47;;;;;;;57.30;34.10;;;9.20;99.90;;;;;;5020111;28;20017;-53
2022/09/25 00:46:27;;;;;;;61.90;34.47;;;9.20;99.90;;;;;;5020034;28;20032;-52
2022/09/25 00:49:19;;;;;;;56.85;35.33;;;9.10;99.90;;;;;;5020692;28;20480;-53
2022/09/25 00:51:52;;;;;;;62.42;36.55;;;9.10;99.90;;;;;;5015742;28;20037;-54
2022/09/25 00:54:30;;;;;;;50.72;33.72;;;9.10;99.90;;;;;;5020288;28;20026;-53
2022/09/25 00:56:58;;;;;;;58.58;34.38;;;9.10;99.90;;;;;;5025480;28;20464;-53
2022/09/25 00:59:29;;;;;;;58.33;35.92;;;9.10;99.90;;;;;;5029776;28;20087;-55
2022/09/25 01:01:55;;;;;;;55.90;35.72;;;9.10;99.90;;;;;;5019252;28;20022;-53
2022/09/25 01:04:22;;;;;;;55.80;35.03;;;9.20;99.90;;;;;;5009001;28;20018;-53
2022/09/25 01:06:49;;;;;;;50.35;33.72;;;9.20;99.90;;;;;;5020526;28;20117;-53
2022/09/25 01:09:16;;;;;;;54.78;33.40;;;9.30;99.90;;;;;;5012092;28;20468;-53
2022/09/25 01:11:41;;;;;;;54.15;34.28;;;9.30;99.90;;;;;;5020627;28;20034;-54
2022/09/25 01:14:08;;;;;;;58.85;35.22;;;9.30;99.90;;;;;;5020864;28;20036;-56
2022/09/25 01:16:54;;;;;;;53.45;33.75;;;9.30;99.90;;;;;;5019000;28;20060;-55
2022/09/25 01:19:26;;;;;;;51.58;34.35;;;9.40;99.90;;;;;;5018552;28;20091;-52
2022/09/25 01:22:17;;;;;;;54.78;34.70;;;9.50;99.90;;;;;;5021642;28;20413;-54
2022/09/25 01:25:02;;;;;;;58.38;36.38;;;9.40;99.90;;;;;;5028811;28;20014;-54
2022/09/25 01:27:36;;;;;;;60.25;34.97;;;9.40;99.90;;;;;;5008970;28;20473;-54
2022/09/25 01:30:17;;;;;;;57.70;36.53;;;9.40;99.90;;;;;;5029837;28;20026;-54
2022/09/25 01:32:51;;;;;;;59.13;38.25;;;9.30;99.90;;;;;;5029636;28;20037;-54
2022/09/25 01:35:19;;;;;;;55.10;35.80;;;9.30;99.90;;;;;;5029665;28;20089;-54
2022/09/25 01:37:58;;;;;;;59.97;37.58;;;9.40;99.90;;;;;;5029262;28;20044;-54
2022/09/25 01:40:32;;;;;;;55.90;35.63;;;9.40;99.90;;;;;;5028392;28;20045;-54
2022/09/25 01:43:10;;;;;;;59.53;38.70;;;9.40;99.90;;;;;;5028680;28;20067;-54
2022/09/25 01:45:51;;;;;;;64.07;38.15;;;9.40;99.90;;;;;;5027197;28;20029;-54
2022/09/25 01:48:21;;;;;;;62.25;37.67;;;9.40;99.90;;;;;;5027277;28;20033;-54
2022/09/25 01:50:59;;;;;;;60.53;39.13;;;9.40;99.90;;;;;;5026718;28;20048;-54
2022/09/25 01:53:31;;;;;;;61.88;38.58;;;9.40;99.90;;;;;;5030314;28;20108;-54
2022/09/25 01:56:05;;;;;;;56.92;37.88;;;9.40;99.90;;;;;;5029654;28;20033;-54
2022/09/25 01:58:37;;;;;;;64.15;38.90;;;9.40;99.90;;;;;;5028827;28;20040;-54
2022/09/25 02:01:11;;;;;;;55.65;37.47;;;9.50;99.90;;;;;;5029593;28;20124;-54
2022/09/25 02:03:46;;;;;;;53.63;36.30;;;9.50;99.90;;;;;;5030433;28;20493;-54
2022/09/25 02:06:16;;;;;;;53.42;36.92;;;9.60;99.90;;;;;;5030249;28;20025;-54
2022/09/25 02:08:51;;;;;;;63.03;38.58;;;9.60;99.90;;;;;;5030373;28;20021;-54
2022/09/25 02:11:16;;;;;;;63.72;39.85;;;9.60;99.90;;;;;;5029887;28;20030;-55
2022/09/25 02:13:57;;;;;;;61.97;37.78;;;9.60;99.90;;;;;;5030020;28;20026;-54
2022/09/25 02:16:42;;;;;;;63.53;37.20;;;9.60;99.90;;;;;;5030412;28;20048;-54
2022/09/25 02:22:09;;;;;;;59.35;37.20;;;9.60;99.90;;;;;;5029137;28;20539;-54
2022/09/25 02:24:55;;;;;;;56.03;37.47;;;9.60;99.90;;;;;;5029143;28;20037;-54
2022/09/25 02:27:23;;;;;;;63.70;39.05;;;9.60;99.90;;;;;;5029196;28;20381;-54
2022/09/25 02:29:49;;;;;;;67.00;39.50;;;9.60;99.90;;;;;;5009508;28;20029;-54
2022/09/25 02:32:20;;;;;;;62.88;40.03;;;9.60;99.90;;;;;;5010373;28;20029;-54
2022/09/25 02:34:46;;;;;;;63.75;41.35;;;9.60;99.90;;;;;;5010360;28;20022;-54
2022/09/25 02:37:16;;;;;;;59.72;39.38;;;9.60;99.90;;;;;;5010394;28;20034;-54
2022/09/25 02:39:48;;;;;;;68.38;41.95;;;9.50;99.90;;;;;;5005298;28;20117;-54
2022/09/25 02:42:51;;;;;;;64.95;41.33;;;9.50;99.90;;;;;;5010177;28;20037;-54
2022/09/25 02:45:37;;;;;;;64.78;40.83;;;9.50;99.90;;;;;;5009530;28;20087;-54
2022/09/25 02:48:31;;;;;;;65.80;41.47;;;9.60;99.90;;;;;;5009513;28;20366;-54
2022/09/25 02:51:11;;;;;;;63.67;42.45;;;9.50;99.90;;;;;;5009400;28;20037;-54
2022/09/25 02:53:49;;;;;;;66.75;42.95;;;9.60;99.90;;;;;;5010459;28;20030;-54
2022/09/25 02:56:37;;;;;;;76.55;45.92;;;9.50;99.90;;;;;;5020551;28;20037;-54
2022/09/25 02:59:14;;;;;;;65.70;43.83;;;9.50;99.90;;;;;;5029678;28;20044;-54
2022/09/25 03:01:41;;;;;;;69.57;41.90;;;9.50;99.90;;;;;;5029702;28;20298;-54
2022/09/25 03:04:08;;;;;;;69.22;43.33;;;9.60;99.90;;;;;;5029990;28;20033;-54
2022/09/25 03:06:36;;;;;;;61.50;39.47;;;9.50;99.90;;;;;;5029866;28;20028;-54
2022/09/25 03:09:03;;;;;;;61.63;38.67;;;9.60;99.90;;;;;;5032237;28;20029;-54
2022/09/25 03:11:28;;;;;;;65.23;42.37;;;9.60;99.90;;;;;;5033839;28;20139;-54
2022/09/25 03:14:04;;;;;;;62.15;39.63;;;9.60;99.90;;;;;;5033926;28;20388;-54
2022/09/25 03:16:50;;;;;;;64.18;41.97;;;9.60;99.90;;;;;;5033070;28;20044;-53
2022/09/25 03:19:18;;;;;;;62.80;41.03;;;9.60;99.90;;;;;;5033031;28;20014;-54
2022/09/25 03:21:45;;;;;;;62.30;40.28;;;9.60;99.90;;;;;;5014809;28;20052;-54
2022/09/25 03:24:10;;;;;;;66.77;42.30;;;9.60;99.90;;;;;;5033097;28;20469;-54
2022/09/25 03:26:36;;;;;;;61.50;40.50;;;9.60;99.90;;;;;;5033480;28;20040;-54
2022/09/25 03:29:02;;;;;;;71.05;43.45;;;9.50;99.90;;;;;;5033116;28;20481;-54
2022/09/25 03:31:29;;;;;;;72.90;44.72;;;9.60;99.90;;;;;;5033516;28;20039;-54
2022/09/25 03:33:55;;;;;;;68.87;43.57;;;9.60;99.90;;;;;;5015583;28;20024;-54
2022/09/25 03:36:23;;;;;;;70.05;44.33;;;9.60;99.90;;;;;;5033311;28;20306;-54
2022/09/25 03:38:51;;;;;;;77.38;46.08;;;9.60;99.90;;;;;;5033007;28;20087;-54
2022/09/25 03:41:20;;;;;;;64.68;43.20;;;9.60;99.90;;;;;;5033131;28;20162;-54
2022/09/25 03:43:50;;;;;;;64.25;41.05;;;9.60;99.90;;;;;;5033013;28;20022;-53
2022/09/25 03:46:16;;;;;;;67.53;41.92;;;9.50;99.90;;;;;;5032418;28;20112;-54
2022/09/25 03:48:41;;;;;;;67.25;44.00;;;9.50;99.90;;;;;;5032257;28;20708;-54
2022/09/25 03:51:08;;;;;;;71.22;44.28;;;9.50;99.90;;;;;;5032235;28;20030;-54
2022/09/25 03:53:34;;;;;;;66.15;43.60;;;9.50;99.90;;;;;;5032196;28;20057;-54
2022/09/25 03:56:05;;;;;;;62.03;40.60;;;9.50;99.90;;;;;;5031718;28;20373;-55
2022/09/25 03:58:32;;;;;;;65.45;40.83;;;9.50;99.90;;;;;;5031919;28;20511;-53
2022/09/25 04:00:57;;;;;;;67.15;42.60;;;9.50;99.90;;;;;;5031855;28;20041;-54
2022/09/25 04:03:28;;;;;;;63.05;42.17;;;9.50;99.90;;;;;;5032283;28;20032;-54
2022/09/25 04:05:59;;;;;;;64.68;41.28;;;9.60;99.90;;;;;;5032671;28;20388;-54
2022/09/25 04:08:26;;;;;;;59.35;38.88;;;9.60;99.90;;;;;;5032802;28;20477;-54
2022/09/25 04:10:58;;;;;;;63.35;38.92;;;9.60;99.90;;;;;;5032544;28;20037;-54
2022/09/25 04:13:25;;;;;;;62.08;38.78;;;9.70;99.90;;;;;;5032662;28;20030;-54
2022/09/25 04:15:51;;;;;;;;;;;9.70;99.90;;;;;;5033052;28;20041;-54
2022/09/25 04:18:16;;;;;;;55.65;37.47;;;9.70;99.90;;;;;;5032174;28;20276;-55
2022/09/25 04:20:42;;;;;;;58.05;38.78;;;9.80;99.90;;;;;;5031451;28;20056;-55
2022/09/25 04:23:08;;;;;;;62.78;39.58;;;9.80;99.90;;;;;;5032593;28;20570;-55
2022/09/25 04:25:33;;;;;;;66.60;40.72;;;9.70;99.90;;;;;;5032331;28;20021;-53
2022/09/25 04:27:59;;;;;;;66.53;42.17;;;9.60;99.90;;;;;;5032570;28;20037;-55
2022/09/25 04:30:27;;;;;;;65.60;42.85;;;9.70;99.90;;;;;;5032277;28;20033;-55
2022/09/25 04:35:39;;;;;;;69.90;44.97;;;9.60;99.90;;;;;;5032005;28;20083;-55
2022/09/25 04:38:05;;;;;;;69.32;41.03;;;9.60;99.90;;;;;;5031354;28;20035;-54
2022/09/25 04:40:31;;;;;;;70.03;42.67;;;9.70;99.90;;;;;;5010127;28;20421;-53
2022/09/25 04:42:58;;;;;;;67.75;44.10;;;9.70;99.90;;;;;;5011785;28;20030;-53
2022/09/25 04:45:25;;;;;;;64.88;40.28;;;9.70;99.90;;;;;;5012215;28;20034;-53
2022/09/25 04:47:54;;;;;;;67.53;44.42;;;9.70;99.90;;;;;;5012585;28;20038;-54
2022/09/25 04:50:24;;;;;;;68.55;42.33;;;9.80;99.90;;;;;;5012472;28;20106;-54
2022/09/25 04:52:50;;;;;;;60.53;40.40;;;9.80;99.90;;;;;;5012202;28;20092;-54
2022/09/25 04:55:23;;;;;;;59.90;41.00;;;9.80;99.90;;;;;;5012370;28;20030;-54
2022/09/25 04:57:59;;;;;;;71.18;41.85;;;9.90;99.90;;;;;;5011894;28;20030;-53
2022/09/25 05:00:28;;;;;;;65.47;41.67;;;9.90;99.90;;;;;;5011925;28;20433;-54
2022/09/25 05:02:54;;;;;;;64.93;42.05;;;9.90;99.90;;;;;;5011927;28;20034;-54
2022/09/25 05:05:19;;;;;;;68.53;44.40;;;9.90;99.90;;;;;;5011094;28;20358;-54
2022/09/25 05:07:53;;;;;;;71.97;45.22;;;9.90;99.90;;;;;;5011064;28;20029;-54
2022/09/25 05:10:20;;;;;;;80.07;45.30;;;9.80;99.90;;;;;;5011000;28;20061;-53
2022/09/25 05:12:46;;;;;;;75.07;45.20;;;9.80;99.90;;;;;;5010806;28;20061;-54
2022/09/25 05:15:15;;;;;;;71.82;43.92;;;9.90;99.90;;;;;;5011560;28;20041;-54
2022/09/25 05:17:40;;;;;;;71.32;45.28;;;9.80;99.90;;;;;;5011783;28;20018;-54
2022/09/25 05:20:06;;;;;;;72.00;46.90;;;9.80;99.90;;;;;;5011738;28;20741;-54
2022/09/25 05:22:32;;;;;;;78.88;48.83;;;9.90;99.90;;;;;;5011587;28;20068;-54
2022/09/25 05:24:58;;;;;;;76.97;51.13;;;9.80;99.90;;;;;;5009721;28;20073;-54
2022/09/25 05:27:23;;;;;;;86.78;51.20;;;9.80;99.90;;;;;;5011503;28;20380;-54
2022/09/25 05:29:49;;;;;;;76.97;49.80;;;9.80;99.90;;;;;;5011384;28;20069;-55
2022/09/25 05:32:17;;;;;;;81.03;49.22;;;9.80;99.90;;;;;;5009854;28;20026;-53
2022/09/25 05:34:42;;;;;;;77.03;48.00;;;9.70;99.90;;;;;;5011610;28;20037;-53
2022/09/25 05:37:08;;;;;;;80.88;47.47;;;9.70;99.90;;;;;;5011294;28;20040;-54
2022/09/25 05:39:34;;;;;;;77.38;46.17;;;9.70;99.90;;;;;;5008950;28;20496;-54
2022/09/25 05:42:01;;;;;;;67.90;45.47;;;9.80;99.90;;;;;;5008999;28;20046;-54
2022/09/25 05:44:27;;;;;;;79.05;46.95;;;9.80;99.90;;;;;;5010549;28;20137;-54
2022/09/25 05:46:55;;;;;;;73.20;45.85;;;9.70;99.90;;;;;;5010280;28;20355;-54
2022/09/25 05:49:21;;;;;;;75.30;46.50;;;9.70;99.90;;;;;;5011104;28;20068;-54
2022/09/25 05:51:47;;;;;;;73.40;45.38;;;9.70;99.90;;;;;;5011196;28;20022;-54
2022/09/25 05:54:12;;;;;;;74.75;45.22;;;9.70;99.90;;;;;;5011178;28;20022;-53
2022/09/25 05:56:38;;;;;;;64.07;41.15;;;9.70;99.90;;;;;;5011170;28;20022;-54
2022/09/25 05:59:04;;;;;;;60.63;37.95;;;9.70;99.90;;;;;;5011027;28;20036;-54
2022/09/25 06:01:29;;;;;;;56.83;39.05;;;9.70;99.90;;;;;;5010583;28;20080;-55
2022/09/25 06:03:55;;;;;;;60.28;37.88;;;9.80;99.90;;;;;;5009048;28;20384;-54
2022/09/25 06:06:21;;;;;;;69.00;37.22;;;9.70;99.90;;;;;;5009694;28;20040;-54
2022/09/25 06:08:46;;;;;;;71.63;43.72;;;9.80;99.90;;;;;;5011005;28;20507;-55
2022/09/25 06:11:12;;;;;;;67.97;43.15;;;9.90;99.90;;;;;;5010836;28;20112;-54
2022/09/25 06:13:37;;;;;;;62.65;41.13;;;9.90;99.90;;;;;;5010686;28;20112;-54
2022/09/25 06:16:04;;;;;;;62.67;39.10;;;9.90;99.90;;;;;;5010635;28;20034;-54
2022/09/25 06:18:31;;;;;;;60.60;39.47;;;10.00;99.90;;;;;;5010787;28;20087;-55
2022/09/25 06:20:58;;;;;;;;;;;10.00;99.90;;;;;;5011124;28;20124;-54
2022/09/25 06:23:24;;;;;;;58.25;35.58;;;10.00;99.90;;;;;;5010136;28;19905;-54
2022/09/25 06:25:50;;;;;;;57.88;37.40;;;10.00;99.90;;;;;;5009959;28;20036;-54
2022/09/25 06:28:15;;;;;;;59.47;39.58;;;10.10;99.90;;;;;;5009718;28;20026;-54
2022/09/25 06:30:41;;;;;;;62.75;39.78;;;10.00;99.90;;;;;;5009783;28;20524;-54
2022/09/25 06:33:11;;;;;;;62.45;38.33;;;10.00;99.90;;;;;;5010052;28;20080;-54
2022/09/25 06:35:41;;;;;;;61.92;38.20;;;10.00;99.90;;;;;;5010405;28;20054;-54
2022/09/25 06:38:07;;;;;;;59.03;37.95;;;10.10;99.90;;;;;;5007568;28;20056;-54
2022/09/25 06:40:33;;;;;;;62.15;40.40;;;10.10;99.90;;;;;;5020779;28;20472;-53
2022/09/25 06:43:01;;;;;;;67.78;42.17;;;10.10;99.90;;;;;;5028964;28;20084;-54
2022/09/25 06:45:28;;;;;;;67.00;42.95;;;10.10;99.90;;;;;;5029554;28;20531;-54
2022/09/25 06:47:59;;;;;;;73.78;44.55;;;10.10;99.90;;;;;;5029512;28;20044;-53
2022/09/25 06:50:30;;;;;;;70.65;44.53;;;10.20;99.90;;;;;;5011768;28;20014;-55
2022/09/25 06:52:59;;;;;;;72.78;46.50;;;10.20;99.90;;;;;;5030090;28;20033;-54
2022/09/25 06:55:29;;;;;;;70.95;45.88;;;10.30;99.90;;;;;;5027111;28;20076;-54
2022/09/25 06:57:54;;;;;;;71.80;44.65;;;10.40;99.90;;;;;;5028729;28;20128;-54
2022/09/25 07:00:20;;;;;;;65.93;43.13;;;10.40;99.90;;;;;;5028788;28;20049;-54
2022/09/25 07:05:29;;;;;;;66.50;43.00;;;10.50;99.90;;;;;;5020028;28;20286;-54
2022/09/25 07:07:55;;;;;;;71.68;43.72;;;10.60;99.90;;;;;;5019824;28;20457;-55
2022/09/25 07:10:21;;;;;;;65.20;41.60;;;10.60;99.90;;;;;;5017782;28;20065;-54
2022/09/25 07:12:47;;;;;;;62.55;39.72;;;10.70;99.90;;;;;;5009657;28;20025;-59
2022/09/25 07:15:14;;;;;;;56.15;37.03;;;10.70;99.90;;;;;;5009292;28;20036;-54
2022/09/25 07:17:43;;;;;;;68.10;42.25;;;10.80;99.90;;;;;;5016490;28;20101;-54
2022/09/25 07:20:14;;;;;;;56.85;38.85;;;10.90;99.90;;;;;;5017682;28;20041;-54
2022/09/25 07:22:42;;;;;;;65.60;39.58;;;10.90;99.90;;;;;;5019383;28;20037;-56
2022/09/25 07:25:09;;;;;;;55.60;37.42;;;11.00;99.90;;;;;;5017126;28;20684;-54
2022/09/25 07:27:35;;;;;;;60.97;38.28;;;11.00;99.90;;;;;;5022486;28;20108;-54
2022/09/25 07:30:02;;;;;;;55.30;36.78;;;11.10;99.90;;;;;;5012165;28;20033;-54
2022/09/25 07:32:28;;;;;;;59.72;36.83;;;11.20;99.90;;;;;;5020829;28;20112;-53
2022/09/25 07:34:54;;;;;;;47.08;32.15;;;11.20;99.90;;;;;;4997958;28;20076;-54
2022/09/25 07:37:19;;;;;;;44.95;31.33;;;11.20;99.90;;;;;;5018075;28;20029;-53
2022/09/25 07:39:45;;;;;;;41.92;28.70;;;11.30;99.90;;;;;;4999888;28;20042;-54
2022/09/25 07:42:11;;;;;;;46.95;30.38;;;11.40;99.90;;;;;;5017979;28;20325;-54
2022/09/25 07:44:38;;;;;;;37.10;23.60;;;11.40;99.90;;;;;;5018178;28;20042;-54
2022/09/25 07:47:05;;;;;;;37.00;23.00;;;11.50;99.90;;;;;;5019603;28;20029;-54
2022/09/25 07:49:32;;;;;;;37.05;21.42;;;11.50;99.90;;;;;;5008947;28;21000;-53
2022/09/25 07:51:58;;;;;;;32.38;21.88;;;11.60;99.90;;;;;;5017073;28;20034;-54
2022/09/25 07:54:24;;;;;;;34.58;20.83;;;11.70;99.90;;;;;;5019715;28;20076;-53
2022/09/25 07:56:50;;;;;;;29.17;19.60;;;11.80;99.90;;;;;;5022400;28;20026;-54
2022/09/25 07:59:16;;;;;;;29.90;19.63;;;11.90;99.90;;;;;;5022771;28;20038;-54
2022/09/25 08:01:42;;;;;;;33.28;21.38;;;12.00;99.90;;;;;;5023328;28;20038;-54
2022/09/25 08:04:07;;;;;;;29.17;19.08;;;12.10;99.90;;;;;;5022143;28;20030;-54
2022/09/25 08:06:34;;;;;;;30.38;19.40;;;12.20;99.90;;;;;;5011012;28;20469;-54
2022/09/25 08:09:00;;;;;;;29.73;19.20;;;12.40;99.90;;;;;;5019361;28;20081;-54
2022/09/25 08:11:27;;;;;;;29.98;18.05;;;12.50;99.90;;;;;;5023220;28;20030;-53
2022/09/25 08:13:53;;;;;;;28.65;18.00;;;12.50;99.90;;;;;;5019187;28;20029;-53
2022/09/25 08:16:21;;;;;;;30.55;19.13;;;12.70;99.90;;;;;;5024135;28;20030;-54
2022/09/25 08:18:48;;;;;;;27.52;16.27;;;12.70;99.90;;;;;;5024344;28;20049;-53
2022/09/25 08:21:18;;;;;;;32.45;16.95;;;12.70;99.90;;;;;;5032405;28;20044;-54
2022/09/25 08:23:52;;;;;;;26.13;16.77;;;12.80;99.90;;;;;;5032578;28;20079;-54
2022/09/25 08:26:19;;;;;;;24.75;16.73;;;12.90;99.90;;;;;;5014436;28;20037;-53
2022/09/25 08:28:45;;;;;;;25.50;16.83;;;12.90;99.90;;;;;;5013261;28;20033;-54
2022/09/25 08:31:13;;;;;;;28.67;17.88;;;12.90;99.90;;;;;;5012765;28;20362;-54
2022/09/25 08:33:43;;;;;;;26.25;17.10;;;12.90;99.90;;;;;;5025580;28;20443;-53
2022/09/25 08:36:09;;;;;;;28.35;17.75;;;13.00;99.90;;;;;;4993312;28;20018;-55
2022/09/25 08:38:35;;;;;;;28.17;17.20;;;13.00;99.90;;;;;;5012587;28;20417;-53
2022/09/25 08:41:21;;;;;;;27.88;17.92;;;13.10;99.90;;;;;;5013589;28;20531;-54
2022/09/25 08:43:58;;;;;;;26.90;16.48;;;13.00;99.90;;;;;;5013617;28;20052;-55
2022/09/25 08:49:25;;;;;;;24.63;14.77;;;13.10;99.90;;;;;;5012882;28;20469;-53
2022/09/25 08:51:53;;;;;;;20.40;13.80;;;13.10;99.90;;;;;;5011476;28;20037;-55
2022/09/25 08:54:23;;;;;;;21.45;14.00;;;13.10;99.90;;;;;;5010223;28;20073;-55
2022/09/25 08:56:55;;;;;;;21.92;14.45;;;13.20;99.90;;;;;;5011366;28;20030;-55
2022/09/25 08:59:41;;;;;;;18.25;13.63;;;13.20;99.90;;;;;;5013859;28;20084;-55
2022/09/25 09:02:18;;;;;;;23.45;16.55;;;13.20;99.90;;;;;;5031262;28;20115;-54
2022/09/25 09:04:51;;;;;;;25.05;16.15;;;13.30;99.90;;;;;;5030624;28;20385;-55
2022/09/25 09:07:33;;;;;;;24.08;15.70;;;13.20;99.90;;;;;;5012641;28;20029;-54
2022/09/25 09:10:22;;;;;;;20.02;13.88;;;13.20;99.90;;;;;;5030822;28;20036;-54
2022/09/25 09:12:56;;;;;;;;;;;13.20;99.90;;;;;;4984661;28;20112;-54
2022/09/25 09:15:50;;;;;;;22.13;14.65;;;13.20;99.90;;;;;;5030641;28;19924;-55
2022/09/25 09:18:28;;;;;;;23.45;15.07;;;13.10;99.90;;;;;;5029665;28;20017;-55
2022/09/25 09:20:56;;;;;;;20.00;14.00;;;13.20;99.90;;;;;;5028554;28;20034;-55
2022/09/25 09:23:29;;;;;;;22.10;14.52;;;13.10;99.90;;;;;;5022366;28;20034;-55
2022/09/25 09:25:58;;;;;;;21.90;14.45;;;13.10;99.90;;;;;;5008936;28;20071;-55
2022/09/25 09:28:47;;;;;;;24.48;16.58;;;13.20;99.90;;;;;;5021244;28;20021;-55
2022/09/25 09:31:21;;;;;;;;;;;13.30;99.90;;;;;;5018855;28;20121;-53
2022/09/25 09:34:05;;;;;;;105.55;78.78;;;13.40;99.90;;;;;;5020565;28;19936;-55
2022/09/25 09:36:45;;;;;;;67.15;49.08;;;13.50;99.90;;;;;;4995022;28;20549;-54
2022/09/25 09:39:30;;;;;;;23.02;15.52;;;13.60;99.90;;;;;;5018131;28;20053;-55
2022/09/25 09:42:33;;;;;;;22.90;15.55;;;14.00;99.90;;;;;;5022121;28;20033;-56
2022/09/25 09:45:15;;;;;;;23.65;15.20;;;14.30;99.90;;;;;;5020474;28;20084;-55
2022/09/25 09:48:19;;;;;;;26.25;16.17;;;14.60;99.90;;;;;;5020088;28;20040;-54
2022/09/25 09:50:54;;;;;;;23.92;16.95;;;14.40;99.90;;;;;;5012101;28;20064;-55
2022/09/25 09:53:30;;;;;;;23.73;16.52;;;14.20;99.90;;;;;;5018241;28;20473;-54
2022/09/25 09:56:13;;;;;;;21.27;15.50;;;14.40;99.90;;;;;;5019820;28;20025;-56
2022/09/25 09:58:47;;;;;;;23.27;17.08;;;14.90;99.90;;;;;;5008425;28;20474;-55
2022/09/25 10:01:16;;;;;;;23.38;15.60;;;15.50;99.90;;;;;;5008503;28;20393;-55
2022/09/25 10:03:46;;;;;;;25.83;17.20;;;15.50;99.90;;;;;;5020324;28;20025;-55
2022/09/25 10:06:15;;;;;;;22.25;16.75;;;15.10;99.90;;;;;;5020057;28;20029;-55
2022/09/25 10:08:41;;;;;;;22.48;15.15;;;15.60;99.90;;;;;;5018333;28;20087;-54
2022/09/25 10:11:17;;;;;;;22.40;15.43;;;15.80;99.90;;;;;;4997538;28;20047;-55
2022/09/25 10:13:44;;;;;;;19.48;12.60;;;16.20;99.90;;;;;;5020138;28;20123;-55
2022/09/25 10:16:10;;;;;;;;;;;16.00;99.90;;;;;;5021829;28;20054;-55
2022/09/25 10:18:52;;;;;;;20.73;14.57;;;15.80;99.90;;;;;;5007195;28;19948;-55
2022/09/25 10:21:26;;;;;;;19.42;12.63;;;15.70;99.90;;;;;;5020054;28;20069;-54
2022/09/25 10:23:53;;;;;;;21.10;14.88;;;16.00;99.90;;;;;;5009265;28;20263;-54
2022/09/25 10:26:24;;;;;;;22.10;13.90;;;16.20;99.90;;;;;;5023724;28;20017;-54
2022/09/25 10:28:51;;;;;;;21.55;14.50;;;16.10;99.90;;;;;;5009966;28;20068;-55
2022/09/25 10:31:20;;;;;;;18.73;13.18;;;16.40;99.90;;;;;;5017981;28;20105;-55
2022/09/25 10:34:02;;;;;;;18.92;14.77;;;16.20;99.90;;;;;;5018486;28;20505;-56
2022/09/25 10:36:38;;;;;;;24.77;14.05;;;16.00;99.90;;;;;;5022073;28;20244;-55
2022/09/25 10:39:18;;;;;;;20.88;13.60;;;16.00;99.90;;;;;;5020763;28;20049;-55
2022/09/25 10:41:46;;;;;;;21.58;14.52;;;16.20;99.90;;;;;;5020731;28;20043;-54
2022/09/25 10:44:27;;;;;;;18.98;13.55;;;16.20;99.90;;;;;;5024220;28;20060;-55
2022/09/25 10:52:46;;;;;;;202.10;140.70;;;17.10;99.90;;;;;;5020821;28;20588;-55
2022/09/25 10:55:24;;;;;;;173.90;125.95;;;17.70;99.90;;;;;;5008061;28;20025;-55
2022/09/25 10:58:02;;;;;;;22.50;15.23;;;18.10;99.90;;;;;;5020326;28;20029;-55
2022/09/25 11:00:28;;;;;;;19.70;12.88;;;18.20;99.90;;;;;;5009684;28;20493;-56
2022/09/25 11:03:01;;;;;;;20.90;15.45;;;18.40;99.90;;;;;;5026558;28;20036;-54
2022/09/25 11:05:30;;;;;;;18.13;13.20;;;18.20;99.90;;;;;;5029664;28;20036;-54
2022/09/25 11:08:03;;;;;;;18.30;12.90;;;18.30;99.90;;;;;;5029172;28;20091;-54
2022/09/25 11:10:34;;;;;;;17.52;11.00;;;18.70;99.90;;;;;;5029510;28;20033;-54
2022/09/25 11:13:06;;;;;;;80.60;59.17;;;19.20;99.90;;;;;;5029051;28;20034;-56
2022/09/25 11:15:33;;;;;;;21.73;17.70;;;18.40;99.90;;;;;;5028749;28;20136;-54
2022/09/25 11:17:59;;;;;;;;;;;18.20;99.90;;;;;;5029845;28;20034;-54
2022/09/25 11:20:30;;;;;;;20.83;12.57;;;18.10;99.90;;;;;;5020334;28;20288;-54
2022/09/25 11:22:56;;;;;;;19.33;11.82;;;18.70;99.90;;;;;;5019003;28;20034;-54
2022/09/25 11:25:52;;;;;;;17.90;11.68;;;17.90;99.90;;;;;;5018168;28;20026;-53
2022/09/25 11:28:39;;;;;;;20.20;10.88;;;17.30;99.90;;;;;;5020465;28;20440;-56
2022/09/25 11:31:24;;;;;;;16.17;9.85;;;17.50;99.90;;;;;;5024216;28;20029;-54
2022/09/25 11:33:56;;;;;;;14.60;9.80;;;17.60;99.90;;;;;;5024460;28;20018;-54
2022/09/25 11:36:31;;;;;;;14.88;11.15;;;17.00;99.90;;;;;;5023668;28;20076;-54
2022/09/25 11:42:13;;;;;;;17.27;11.85;;;16.90;99.90;;;;;;5013501;28;20072;-53
2022/09/25 11:44:44;;;;;;;15.27;10.57;;;17.10;99.90;;;;;;5013395;28;20061;-54
2022/09/25 11:47:27;;;;;;;18.85;12.52;;;17.20;99.90;;;;;;5020800;28;20033;-53
2022/09/25 11:49:55;;;;;;;17.45;12.40;;;17.10;99.90;;;;;;5023963;28;20489;-54
2022/09/25 11:52:27;;;;;;;18.00;12.07;;;17.10;99.90;;;;;;5011830;28;20037;-53
2022/09/25 11:55:07;;;;;;;17.27;11.77;;;17.10;99.90;;;;;;5032920;28;20112;-53
2022/09/25 11:58:17;;;;;;;15.23;10.75;;;17.20;99.90;;;;;;5023649;28;20025;-54
2022/09/25 12:00:59;;;;;;;16.52;11.52;;;17.10;99.90;;;;;;4994058;28;20029;-54
2022/09/25 12:03:50;;;;;;;15.63;11.20;;;17.10;99.90;;;;;;5010872;28;20022;-55
2022/09/25 12:06:25;;;;;;;17.98;10.93;;;17.10;99.90;;;;;;5022583;28;20195;-54
2022/09/25 12:09:00;;;;;;;17.65;11.57;;;16.90;99.90;;;;;;5022667;28;20496;-55
2022/09/25 12:12:00;;;;;;;14.57;10.32;;;16.90;99.90;;;;;;5023159;28;20032;-53
2022/09/25 12:14:32;;;;;;;21.75;11.02;;;16.80;99.90;;;;;;5022482;28;20063;-53
2022/09/25 12:17:03;;;;;;;17.83;11.25;;;17.10;99.90;;;;;;5022064;28;20057;-53
2022/09/25 12:19:48;;;;;;;14.60;10.15;;;17.30;99.90;;;;;;5027439;28;20036;-54
2022/09/25 12:22:42;;;;;;;16.05;9.63;;;17.30;99.90;;;;;;5021389;28;20077;-54
2022/09/25 12:25:32;;;;;;;12.18;7.82;;;17.40;99.90;;;;;;5021895;28;20022;-55
2022/09/25 12:28:41;;;;;;;12.05;8.00;;;17.50;99.90;;;;;;5022042;28;20049;-54
2022/09/25 12:31:27;;;;;;;11.15;7.22;;;17.30;99.90;;;;;;4998029;28;20532;-54
2022/09/25 12:34:20;;;;;;;13.00;7.80;;;17.10;99.90;;;;;;5020668;28;20025;-54
2022/09/25 12:37:11;;;;;;;14.48;8.80;;;17.00;99.90;;;;;;5020180;28;20014;-54
2022/09/25 12:39:42;;;;;;;14.60;8.07;;;17.10;99.90;;;;;;5026481;28;20042;-54
2022/09/25 12:42:15;;;;;;;13.48;8.40;;;17.00;99.90;;;;;;5019259;28;20046;-55
2022/09/25 12:44:53;;;;;;;14.68;7.90;;;16.90;99.90;;;;;;5021000;28;20040;-54
2022/09/25 12:47:23;;;;;;;;;;;16.90;99.90;;;;;;5021326;28;20018;-54
2022/09/25 12:49:58;;;;;;;12.90;7.80;;;16.80;99.90;;;;;;5020952;28;19905;-55
2022/09/25 12:52:30;;;;;;;12.35;8.30;;;16.80;99.90;;;;;;5021819;28;20080;-55
2022/09/25 12:55:20;;;;;;;15.10;9.55;;;16.90;99.90;;;;;;5020818;28;20018;-54
2022/09/25 12:57:58;;;;;;;13.75;7.75;;;17.20;99.90;;;;;;5022501;28;20028;-53
2022/09/25 13:00:28;;;;;;;9.55;6.88;;;17.20;99.90;;;;;;5025613;28;20032;-52
2022/09/25 13:03:21;;;;;;;14.00;7.97;;;17.10;99.90;;;;;;5031483;28;20477;-53
2022/09/25 13:05:51;;;;;;;15.07;7.70;;;17.10;99.90;;;;;;5031475;28;20045;-53
2022/09/25 13:08:52;;;;;;;13.75;8.48;;;17.10;99.90;;;;;;5031590;28;20029;-54
2022/09/25 13:11:44;;;;;;;13.90;7.88;;;17.10;99.90;;;;;;5031046;28;20469;-54
2022/09/25 13:14:42;;;;;;;11.57;7.47;;;16.90;99.90;;;;;;5036061;28;20064;-53
2022/09/25 13:17:14;;;;;;;11.65;7.70;;;17.00;99.90;;;;;;5012902;28;20427;-53
2022/09/25 13:19:40;;;;;;;13.13;7.85;;;16.90;99.90;;;;;;5051236;28;20068;-53
2022/09/25 13:22:23;;;;;;;11.68;7.60;;;16.80;99.90;;;;;;5051143;28;20072;-54
2022/09/25 13:24:51;;;;;;;13.13;7.47;;;16.80;99.90;;;;;;5051624;28;20043;-54